createdAt,value
2023-03-27T00:01:24.452Z,0.83
2023-03-27T00:03:53.632Z,1.00
2023-03-27T00:06:25.022Z,2.00
2023-03-27T00:08:54.924Z,1.73
2023-03-27T00:11:25.926Z,1.00
2023-03-27T00:13:54.938Z,0.80
2023-03-27T00:16:25.498Z,1.27
2023-03-27T00:18:54.290Z,0.90
2023-03-27T00:21:22.998Z,0.87
2023-03-27T00:23:51.336Z,0.60
2023-03-27T00:26:22.062Z,0.70
2023-03-27T00:28:50.193Z,0.70
2023-03-27T00:31:18.261Z,1.00
2023-03-27T00:33:46.609Z,1.13
2023-03-27T00:36:15.284Z,0.80
2023-03-27T00:38:45.924Z,0.93
2023-03-27T00:41:14.083Z,2.47
2023-03-27T00:43:45.038Z,0.80
2023-03-27T00:46:32.673Z,0.73
2023-03-27T00:49:05.022Z,1.00
2023-03-27T00:51:33.400Z,1.13
2023-03-27T00:54:02.593Z,0.50
2023-03-27T00:56:30.885Z,0.90
2023-03-27T00:59:04.106Z,0.60
2023-03-27T01:01:32.435Z,0.93
2023-03-27T01:04:05.874Z,1.17
2023-03-27T01:06:34.656Z,0.50
2023-03-27T01:09:04.610Z,2.67
2023-03-27T01:11:43.793Z,1.53
2023-03-27T01:14:26.435Z,0.70
2023-03-27T01:17:08.430Z,0.80
2023-03-27T01:19:56.044Z,0.80
2023-03-27T01:22:57.106Z,0.80
2023-03-27T01:26:10.038Z,0.90
2023-03-27T01:28:50.154Z,0.80
2023-03-27T01:31:35.032Z,1.43
2023-03-27T01:34:27.205Z,1.07
2023-03-27T01:37:25.393Z,0.83
2023-03-27T01:40:01.934Z,1.63
2023-03-27T01:42:36.914Z,1.00
2023-03-27T01:45:09.281Z,1.00
2023-03-27T01:47:45.577Z,1.57
2023-03-27T01:50:22.649Z,1.97
2023-03-27T01:52:57.400Z,0.97
2023-03-27T01:55:31.487Z,2.27
2023-03-27T01:58:03.664Z,2.10
2023-03-27T02:00:52.140Z,0.70
2023-03-27T02:03:27.635Z,1.20
2023-03-27T02:06:02.603Z,1.20
2023-03-27T02:08:37.684Z,1.30
2023-03-27T02:11:29.224Z,1.03
2023-03-27T02:14:01.291Z,2.30
2023-03-27T02:16:34.678Z,1.63
2023-03-27T02:19:11.302Z,1.37
2023-03-27T02:21:41.837Z,1.43
2023-03-27T02:24:10.444Z,3.37
2023-03-27T02:26:41.797Z,3.23
2023-03-27T02:29:28.408Z,6.30
2023-03-27T02:32:08.999Z,7.73
2023-03-27T02:34:57.041Z,6.93
2023-03-27T02:37:37.200Z,6.63
2023-03-27T02:40:41.402Z,7.80
2023-03-27T02:43:59.090Z,9.40
2023-03-27T02:46:54.587Z,6.80
2023-03-27T02:49:29.003Z,6.80
2023-03-27T02:52:01.826Z,12.63
2023-03-27T02:54:35.834Z,8.30
2023-03-27T02:57:09.193Z,9.13
2023-03-27T03:00:06.084Z,8.63
2023-03-27T03:02:40.859Z,8.17
2023-03-27T03:05:17.388Z,8.67
2023-03-27T03:07:46.501Z,11.67
2023-03-27T03:10:16.068Z,9.07
2023-03-27T03:12:44.172Z,7.77
2023-03-27T03:15:14.075Z,8.47
2023-03-27T03:17:42.627Z,9.77
2023-03-27T03:20:16.698Z,10.30
2023-03-27T03:22:44.493Z,8.97
2023-03-27T03:25:18.120Z,12.23
2023-03-27T03:27:46.056Z,10.10
2023-03-27T03:30:16.636Z,7.57
2023-03-27T03:33:00.237Z,9.00
2023-03-27T03:35:29.134Z,6.63
2023-03-27T03:37:59.420Z,9.37
2023-03-27T03:40:28.458Z,5.00
2023-03-27T03:42:59.119Z,11.67
2023-03-27T03:45:31.220Z,12.87
2023-03-27T03:47:59.744Z,14.83
2023-03-27T03:50:27.749Z,9.43
2023-03-27T03:52:55.569Z,6.03
2023-03-27T03:55:25.691Z,10.33
2023-03-27T03:57:53.708Z,10.77
2023-03-27T04:00:26.892Z,9.00
2023-03-27T04:02:58.927Z,9.73
2023-03-27T04:05:27.032Z,8.23
2023-03-27T04:07:59.382Z,10.10
2023-03-27T04:10:27.585Z,9.23
2023-03-27T04:12:58.426Z,9.50
2023-03-27T04:15:36.461Z,9.67
2023-03-27T04:18:35.271Z,15.60
2023-03-27T04:21:15.345Z,9.47
2023-03-27T04:23:43.669Z,10.53
2023-03-27T04:26:13.500Z,8.40
2023-03-27T04:29:11.878Z,8.97
2023-03-27T04:31:58.830Z,5.50
2023-03-27T04:34:43.325Z,11.70
2023-03-27T04:37:30.507Z,7.23
2023-03-27T04:40:18.042Z,6.93
2023-03-27T04:42:46.504Z,9.80
2023-03-27T04:45:17.280Z,6.93
2023-03-27T04:47:48.831Z,8.73
2023-03-27T04:50:19.169Z,9.77
2023-03-27T04:52:49.809Z,7.00
2023-03-27T04:55:19.777Z,10.37
2023-03-27T04:57:50.584Z,9.47
2023-03-27T05:00:20.420Z,7.17
2023-03-27T05:02:50.157Z,10.50
2023-03-27T05:05:25.822Z,7.23
2023-03-27T05:07:54.595Z,7.40
2023-03-27T05:10:25.378Z,9.50
2023-03-27T05:12:57.200Z,9.40
2023-03-27T05:15:32.375Z,7.73
2023-03-27T05:18:02.579Z,5.97
2023-03-27T05:20:34.166Z,10.07
2023-03-27T05:23:07.387Z,9.43
2023-03-27T05:25:35.268Z,6.37
2023-03-27T05:28:07.529Z,7.73
2023-03-27T05:30:36.663Z,7.97
2023-03-27T05:33:17.515Z,7.33
2023-03-27T05:35:50.191Z,8.40
2023-03-27T05:38:18.910Z,9.07
2023-03-27T05:41:07.282Z,6.80
2023-03-27T05:43:40.198Z,8.03
2023-03-27T05:46:08.660Z,5.63
2023-03-27T05:48:38.642Z,6.77
2023-03-27T05:51:09.389Z,8.37
2023-03-27T05:53:39.272Z,4.27
2023-03-27T05:56:18.898Z,5.90
2023-03-27T05:58:55.673Z,6.07
2023-03-27T06:01:25.842Z,5.77
2023-03-27T06:03:56.473Z,5.70
2023-03-27T06:06:46.528Z,3.17
2023-03-27T06:09:14.871Z,9.20
2023-03-27T06:11:50.580Z,4.47
2023-03-27T06:14:20.573Z,5.83
2023-03-27T06:17:06.478Z,6.77
2023-03-27T06:19:49.528Z,7.53
2023-03-27T06:22:19.445Z,5.23
2023-03-27T06:24:49.645Z,7.13
2023-03-27T06:27:21.538Z,7.73
2023-03-27T06:29:49.497Z,6.97
2023-03-27T06:32:17.767Z,4.20
2023-03-27T06:34:51.824Z,6.30
2023-03-27T06:37:41.058Z,6.33
2023-03-27T06:40:10.417Z,7.90
2023-03-27T06:42:40.751Z,8.33
2023-03-27T06:45:35.692Z,11.03
2023-03-27T06:48:30.097Z,7.20
2023-03-27T06:50:58.839Z,8.07
2023-03-27T06:53:31.178Z,6.80
2023-03-27T06:56:05.112Z,6.60
2023-03-27T06:58:53.054Z,9.43
2023-03-27T07:01:22.676Z,12.33
2023-03-27T07:03:59.472Z,3.50
2023-03-27T07:06:48.897Z,10.70
2023-03-27T07:09:18.550Z,9.47
2023-03-27T07:11:57.584Z,9.10
2023-03-27T07:14:25.651Z,8.40
2023-03-27T07:16:53.722Z,5.37
2023-03-27T07:19:25.667Z,10.27
2023-03-27T07:22:02.912Z,4.53
2023-03-27T07:24:34.745Z,3.63
2023-03-27T07:27:03.220Z,8.50
2023-03-27T07:29:34.004Z,7.03
2023-03-27T07:32:06.934Z,5.77
2023-03-27T07:34:41.115Z,6.37
2023-03-27T07:37:29.928Z,6.43
2023-03-27T07:40:36.900Z,7.73
2023-03-27T07:43:30.734Z,5.20
2023-03-27T07:46:01.594Z,5.50
2023-03-27T07:48:30.399Z,7.57
2023-03-27T07:51:10.843Z,10.43
2023-03-27T07:53:43.654Z,5.83
2023-03-27T07:56:19.399Z,5.30
2023-03-27T07:58:48.983Z,6.70
2023-03-27T08:01:21.426Z,4.37
2023-03-27T08:03:50.491Z,4.90
2023-03-27T08:06:20.415Z,9.80
2023-03-27T08:08:50.308Z,6.23
2023-03-27T08:11:30.180Z,4.27
2023-03-27T08:13:59.693Z,4.70
2023-03-27T08:16:29.843Z,3.17
2023-03-27T08:19:00.752Z,6.30
2023-03-27T08:21:33.246Z,6.07
2023-03-27T08:24:02.680Z,5.77
2023-03-27T08:26:38.150Z,3.67
2023-03-27T08:29:12.432Z,9.13
2023-03-27T08:31:41.162Z,6.70
2023-03-27T08:34:10.198Z,5.50
2023-03-27T08:36:52.533Z,6.83
2023-03-27T08:39:22.848Z,7.67
2023-03-27T08:42:01.012Z,5.70
2023-03-27T08:44:38.652Z,6.43
2023-03-27T08:47:17.893Z,5.23
2023-03-27T08:49:58.518Z,6.40
2023-03-27T08:52:34.019Z,6.90
2023-03-27T08:55:13.451Z,5.17
2023-03-27T08:57:51.756Z,3.80
2023-03-27T09:00:27.278Z,6.40
2023-03-27T09:03:16.588Z,6.40
2023-03-27T09:05:52.951Z,4.40
2023-03-27T09:08:35.736Z,5.17
2023-03-27T09:11:11.352Z,4.93
2023-03-27T09:13:53.451Z,9.30
2023-03-27T09:16:27.444Z,3.47
2023-03-27T09:19:04.942Z,6.50
2023-03-27T09:21:39.476Z,6.03
2023-03-27T09:24:18.743Z,5.00
2023-03-27T09:27:18.239Z,3.90
2023-03-27T09:30:18.582Z,5.67
2023-03-27T09:32:59.126Z,4.93
2023-03-27T09:35:28.108Z,4.33
2023-03-27T09:38:01.228Z,7.47
2023-03-27T09:40:34.544Z,6.60
2023-03-27T09:43:09.658Z,5.80
2023-03-27T09:45:42.317Z,4.77
2023-03-27T09:48:15.482Z,3.30
2023-03-27T09:50:49.274Z,5.47
2023-03-27T09:53:57.393Z,3.70
2023-03-27T09:56:29.475Z,6.27
2023-03-27T09:58:59.069Z,3.43
2023-03-27T10:01:34.577Z,6.83
2023-03-27T10:04:17.201Z,5.17
2023-03-27T10:06:49.410Z,5.43
2023-03-27T10:09:26.775Z,5.40
2023-03-27T10:12:09.507Z,4.00
2023-03-27T10:14:41.444Z,5.20
2023-03-27T10:17:23.536Z,7.00
2023-03-27T10:20:04.262Z,6.97
2023-03-27T10:22:39.477Z,3.47
2023-03-27T10:25:18.622Z,3.53
2023-03-27T10:27:55.256Z,6.47
2023-03-27T10:30:35.390Z,4.23
2023-03-27T10:33:33.939Z,4.83
2023-03-27T10:36:21.372Z,5.50
2023-03-27T10:38:58.055Z,2.93
2023-03-27T10:41:43.518Z,4.10
2023-03-27T10:44:17.956Z,3.83
2023-03-27T10:46:54.135Z,3.47
2023-03-27T10:49:36.477Z,5.13
2023-03-27T10:52:17.319Z,4.10
2023-03-27T10:55:20.137Z,3.97
2023-03-27T10:57:56.792Z,3.90
2023-03-27T11:00:40.103Z,5.77
2023-03-27T11:03:18.187Z,5.00
2023-03-27T11:06:05.482Z,4.57
2023-03-27T11:08:47.973Z,7.73
2023-03-27T11:11:22.337Z,5.10
2023-03-27T11:13:55.275Z,3.13
2023-03-27T11:16:27.131Z,4.77
2023-03-27T11:19:27.969Z,3.70
2023-03-27T11:22:29.910Z,4.47
2023-03-27T11:25:05.828Z,5.10
2023-03-27T11:27:40.000Z,2.40
2023-03-27T11:30:32.353Z,5.70
2023-03-27T11:33:10.718Z,6.37
2023-03-27T11:35:48.720Z,4.33
2023-03-27T11:38:46.500Z,4.50
2023-03-27T11:41:16.335Z,3.27
2023-03-27T11:43:45.417Z,2.33
2023-03-27T11:46:54.068Z,4.07
2023-03-27T11:50:08.004Z,3.23
2023-03-27T11:52:53.417Z,2.80
2023-03-27T11:55:58.685Z,5.33
2023-03-27T11:58:33.408Z,4.40
2023-03-27T12:01:09.878Z,4.23
2023-03-27T12:04:00.994Z,4.57
2023-03-27T12:06:52.110Z,4.30
2023-03-27T12:09:41.521Z,4.03
2023-03-27T12:13:00.803Z,1.97
2023-03-27T12:15:43.085Z,1.70
2023-03-27T12:18:27.498Z,2.57
2023-03-27T12:21:25.078Z,2.90
2023-03-27T12:24:20.101Z,3.43
2023-03-27T12:27:28.919Z,3.67
2023-03-27T12:30:27.574Z,3.93
2023-03-27T12:33:31.855Z,2.57
2023-03-27T12:36:03.008Z,4.27
2023-03-27T12:38:33.588Z,3.70
2023-03-27T12:41:06.376Z,2.67
2023-03-27T12:43:58.439Z,5.87
2023-03-27T12:47:08.457Z,2.20
2023-03-27T12:49:48.164Z,2.23
2023-03-27T12:52:27.059Z,4.40
2023-03-27T12:55:25.211Z,4.40
2023-03-27T12:58:00.650Z,4.17
2023-03-27T13:00:54.865Z,4.10
2023-03-27T13:04:05.709Z,3.30
2023-03-27T13:06:47.174Z,3.53
2023-03-27T13:09:33.914Z,3.20
2023-03-27T13:12:21.521Z,3.43
2023-03-27T13:15:20.943Z,2.40
2023-03-27T13:18:02.496Z,3.63
2023-03-27T13:20:47.067Z,5.07
2023-03-27T13:23:45.332Z,3.17
2023-03-27T13:26:35.555Z,3.87
2023-03-27T13:29:11.671Z,3.97
2023-03-27T13:32:01.155Z,2.63
2023-03-27T13:35:02.390Z,4.87
2023-03-27T13:37:53.665Z,2.87
2023-03-27T13:40:32.062Z,5.97
2023-03-27T13:43:15.641Z,3.80
2023-03-27T13:45:48.181Z,6.53
2023-03-27T13:48:59.024Z,2.47
2023-03-27T13:52:07.990Z,2.10
2023-03-27T13:55:06.048Z,2.87
2023-03-27T13:58:21.128Z,5.30
2023-03-27T14:01:18.009Z,5.20
2023-03-27T14:04:22.541Z,4.60
2023-03-27T14:07:21.274Z,2.33
2023-03-27T14:10:28.414Z,3.20
2023-03-27T14:13:31.151Z,2.87
2023-03-27T14:16:38.267Z,4.40
2023-03-27T14:19:34.443Z,7.23
2023-03-27T14:22:16.324Z,5.97
2023-03-27T14:25:04.077Z,4.90
2023-03-27T14:27:44.570Z,3.70
2023-03-27T14:30:23.408Z,3.97
2023-03-27T14:33:29.200Z,5.97
2023-03-27T14:36:03.974Z,2.77
2023-03-27T14:38:34.673Z,5.63
2023-03-27T14:41:05.113Z,2.83
2023-03-27T14:43:48.555Z,3.97
2023-03-27T14:46:21.610Z,2.83
2023-03-27T14:48:54.848Z,3.07
2023-03-27T14:51:27.148Z,2.73
2023-03-27T14:54:01.261Z,3.10
2023-03-27T14:56:47.509Z,3.03
2023-03-27T14:59:34.970Z,3.93
2023-03-27T15:02:15.821Z,5.37
2023-03-27T15:04:44.215Z,1.63
2023-03-27T15:07:19.740Z,4.50
2023-03-27T15:10:12.485Z,5.63
2023-03-27T15:12:59.805Z,4.03
2023-03-27T15:15:39.566Z,6.67
2023-03-27T15:18:17.351Z,3.27
2023-03-27T15:20:50.514Z,1.87
2023-03-27T15:23:23.039Z,0.93
2023-03-27T15:25:56.597Z,2.30
2023-03-27T15:28:30.254Z,4.97
2023-03-27T15:31:01.740Z,2.87
2023-03-27T15:33:36.112Z,5.97
2023-03-27T15:36:10.178Z,8.53
2023-03-27T15:38:38.990Z,8.23
2023-03-27T15:41:39.567Z,11.23
2023-03-27T15:44:23.093Z,14.63
2023-03-27T15:46:59.622Z,10.20
2023-03-27T15:49:35.106Z,4.93
2023-03-27T15:52:30.748Z,5.67
2023-03-27T15:55:01.901Z,2.77
2023-03-27T15:57:30.590Z,2.03
2023-03-27T16:00:05.738Z,3.23
2023-03-27T16:02:42.320Z,2.43
2023-03-27T16:05:20.223Z,2.50
2023-03-27T16:07:49.412Z,2.47
2023-03-27T16:10:30.957Z,4.00
2023-03-27T16:13:02.590Z,4.90
2023-03-27T16:15:33.455Z,2.20
2023-03-27T16:18:05.097Z,3.00
2023-03-27T16:20:40.534Z,3.00
2023-03-27T16:23:08.794Z,2.97
2023-03-27T16:25:36.967Z,3.30
2023-03-27T16:28:08.374Z,3.10
2023-03-27T16:30:38.998Z,4.47
2023-03-27T16:33:15.786Z,1.53
2023-03-27T16:35:46.778Z,2.33
2023-03-27T16:38:14.745Z,4.73
2023-03-27T16:40:42.951Z,2.20
2023-03-27T16:43:11.448Z,3.10
2023-03-27T16:45:39.770Z,2.07
2023-03-27T16:48:08.261Z,1.30
2023-03-27T16:50:37.059Z,2.90
2023-03-27T16:53:06.406Z,3.07
2023-03-27T16:55:34.595Z,2.67
2023-03-27T16:58:03.713Z,1.37
2023-03-27T17:00:34.690Z,1.40
2023-03-27T17:03:03.734Z,2.93
2023-03-27T17:05:34.466Z,3.27
2023-03-27T17:08:04.545Z,2.57
2023-03-27T17:10:35.663Z,2.47
2023-03-27T17:13:03.735Z,2.13
2023-03-27T17:15:32.496Z,3.07
2023-03-27T17:18:00.638Z,1.63
2023-03-27T17:20:28.590Z,2.17
2023-03-27T17:22:57.132Z,2.33
2023-03-27T17:25:25.527Z,1.10
2023-03-27T17:27:55.013Z,1.93
2023-03-27T17:30:36.721Z,1.57
2023-03-27T17:33:06.994Z,1.73
2023-03-27T17:35:35.048Z,3.00
2023-03-27T17:38:03.422Z,3.70
2023-03-27T17:40:31.504Z,2.43
2023-03-27T17:43:00.905Z,2.47
2023-03-27T17:45:28.966Z,2.70
2023-03-27T17:47:57.045Z,1.80
2023-03-27T17:50:25.870Z,1.70
2023-03-27T17:52:54.988Z,2.13
2023-03-27T17:55:23.022Z,2.67
2023-03-27T17:58:07.759Z,1.70
2023-03-27T18:00:42.642Z,2.40
2023-03-27T18:03:11.523Z,3.13
2023-03-27T18:05:42.298Z,1.47
2023-03-27T18:08:13.989Z,2.07
2023-03-27T18:10:49.032Z,2.43
2023-03-27T18:13:22.849Z,2.63
2023-03-27T18:15:55.257Z,3.63
2023-03-27T18:18:23.373Z,2.70
2023-03-27T18:20:52.277Z,3.07
2023-03-27T18:23:20.533Z,2.27
2023-03-27T18:25:49.197Z,2.40
2023-03-27T18:28:17.606Z,2.80
2023-03-27T18:30:46.576Z,2.40
2023-03-27T18:33:16.466Z,2.30
2023-03-27T18:35:44.750Z,3.30
2023-03-27T18:38:14.306Z,4.00
2023-03-27T18:40:42.471Z,4.47
2023-03-27T18:43:12.609Z,3.73
2023-03-27T18:45:41.564Z,3.83
2023-03-27T18:48:10.351Z,4.57
2023-03-27T18:50:40.071Z,3.90
2023-03-27T18:53:08.121Z,2.30
2023-03-27T18:55:36.398Z,2.13
2023-03-27T18:58:04.740Z,2.97
2023-03-27T19:00:33.412Z,3.13
2023-03-27T19:03:01.658Z,2.90
2023-03-27T19:05:32.041Z,4.73
2023-03-27T19:08:01.660Z,4.40
2023-03-27T19:10:29.621Z,2.73
2023-03-27T19:13:17.179Z,3.37
2023-03-27T19:15:51.453Z,3.40
2023-03-27T19:18:41.058Z,3.63
2023-03-27T19:21:19.327Z,1.77
2023-03-27T19:23:55.304Z,3.10
2023-03-27T19:26:35.214Z,1.97
2023-03-27T19:29:03.229Z,1.73
2023-03-27T19:31:31.443Z,2.03
2023-03-27T19:34:00.105Z,1.93
2023-03-27T19:36:27.888Z,1.77
2023-03-27T19:38:57.173Z,1.40
2023-03-27T19:41:27.129Z,2.17
2023-03-27T19:43:55.166Z,2.63
2023-03-27T19:46:24.769Z,3.20
2023-03-27T19:48:56.042Z,3.43
2023-03-27T19:51:42.713Z,4.10
2023-03-27T19:54:15.506Z,4.83
2023-03-27T19:56:44.113Z,2.30
2023-03-27T19:59:20.775Z,2.27
2023-03-27T20:01:56.353Z,2.40
2023-03-27T20:04:24.614Z,2.13
2023-03-27T20:06:54.055Z,2.43
2023-03-27T20:09:23.709Z,3.77
2023-03-27T20:11:55.166Z,2.70
2023-03-27T20:14:23.662Z,5.30
2023-03-27T20:16:52.071Z,3.87
2023-03-27T20:19:21.971Z,3.97
2023-03-27T20:21:53.286Z,2.23
2023-03-27T20:24:22.968Z,3.13
2023-03-27T20:26:58.412Z,2.00
2023-03-27T20:29:27.674Z,2.00
2023-03-27T20:31:55.889Z,4.53
2023-03-27T20:34:24.353Z,2.17
2023-03-27T20:36:53.558Z,3.90
2023-03-27T20:39:49.323Z,2.90
2023-03-27T20:42:23.457Z,4.17
2023-03-27T20:44:55.190Z,1.87
2023-03-27T20:47:23.271Z,3.10
2023-03-27T20:49:51.254Z,3.20
2023-03-27T20:52:22.744Z,4.10
2023-03-27T20:54:52.148Z,2.77
2023-03-27T20:57:22.531Z,1.93
2023-03-27T20:59:51.198Z,2.57
2023-03-27T21:02:20.562Z,2.63
2023-03-27T21:04:48.686Z,3.57
2023-03-27T21:07:17.259Z,2.93
2023-03-27T21:09:47.956Z,4.10
2023-03-27T21:12:17.137Z,1.50
2023-03-27T21:14:45.052Z,2.00
2023-03-27T21:17:15.440Z,2.33
2023-03-27T21:19:46.054Z,2.30
2023-03-27T21:22:13.943Z,2.80
2023-03-27T21:24:42.628Z,3.87
2023-03-27T21:27:10.521Z,3.07
2023-03-27T21:29:39.901Z,1.27
2023-03-27T21:32:08.174Z,0.90
2023-03-27T21:34:36.155Z,1.83
2023-03-27T21:37:04.119Z,3.97
2023-03-27T21:39:32.090Z,2.57
2023-03-27T21:42:00.438Z,2.33
2023-03-27T21:44:28.253Z,1.43
2023-03-27T21:46:57.459Z,1.70
2023-03-27T21:49:26.955Z,1.47
2023-03-27T21:51:54.834Z,2.53
2023-03-27T21:54:22.871Z,1.53
2023-03-27T21:56:53.447Z,3.57
2023-03-27T21:59:21.272Z,2.30
2023-03-27T22:01:49.580Z,3.93
2023-03-27T22:04:20.552Z,1.73
2023-03-27T22:06:49.621Z,2.70
2023-03-27T22:09:17.952Z,1.40
2023-03-27T22:11:45.885Z,2.37
2023-03-27T22:14:13.823Z,2.53
2023-03-27T22:16:42.322Z,2.43
2023-03-27T22:19:10.929Z,1.90
2023-03-27T22:21:40.658Z,3.23
2023-03-27T22:24:09.014Z,1.97
2023-03-27T22:26:39.775Z,2.90
2023-03-27T22:29:09.157Z,1.63
2023-03-27T22:31:37.871Z,2.17
2023-03-27T22:34:06.727Z,2.77
2023-03-27T22:36:36.129Z,1.30
2023-03-27T22:39:06.216Z,2.07
2023-03-27T22:41:34.087Z,3.50
2023-03-27T22:44:02.604Z,2.97
2023-03-27T22:46:30.568Z,2.50
2023-03-27T22:49:00.838Z,2.47
2023-03-27T22:51:29.929Z,3.73
2023-03-27T22:53:57.810Z,2.93
2023-03-27T22:56:27.152Z,2.43
2023-03-27T22:58:55.198Z,2.57
2023-03-27T23:01:23.186Z,4.60
2023-03-27T23:03:51.126Z,2.40
2023-03-27T23:06:20.721Z,3.93
2023-03-27T23:08:49.190Z,2.10
2023-03-27T23:11:18.097Z,2.80
2023-03-27T23:13:48.065Z,3.77
2023-03-27T23:16:16.020Z,1.40
2023-03-27T23:18:44.019Z,4.07
2023-03-27T23:21:13.692Z,1.97
2023-03-27T23:23:41.983Z,1.80
2023-03-27T23:26:11.032Z,2.70
2023-03-27T23:28:40.313Z,2.93
2023-03-27T23:31:12.618Z,2.20
2023-03-27T23:33:42.735Z,2.83
2023-03-27T23:36:12.520Z,1.80
2023-03-27T23:38:41.830Z,3.10
2023-03-27T23:41:11.371Z,2.97
2023-03-27T23:43:39.528Z,2.63
2023-03-27T23:46:10.709Z,2.37
2023-03-27T23:48:39.822Z,1.83
2023-03-27T23:51:08.576Z,2.60
2023-03-27T23:53:38.630Z,2.60
2023-03-27T23:56:07.361Z,5.00
2023-03-27T23:58:37.069Z,3.03
